Map

Track Data

SID SEASON NUMBER BASIN SUBBASIN NAME ISO_TIME NATURE LAT LON WMO_WIND WMO_PRES WMO_AGENCY TRACK_TYPE DIST2LAND LANDFALL IFLAG USA_AGENCY USA_ATCF_ID USA_LAT USA_LON USA_RECORD USA_STATUS USA_WIND USA_PRES USA_SSHS USA_R34_NE USA_R34_SE USA_R34_SW USA_R34_NW USA_R50_NE USA_R50_SE USA_R50_SW USA_R50_NW USA_R64_NE USA_R64_SE USA_R64_SW USA_R64_NW USA_POCI USA_ROCI USA_RMW USA_EYE TOKYO_LAT TOKYO_LON TOKYO_GRADE TOKYO_WIND TOKYO_PRES TOKYO_R50_DIR TOKYO_R50_LONG TOKYO_R50_SHORT TOKYO_R30_DIR TOKYO_R30_LONG TOKYO_R30_SHORT TOKYO_LAND CMA_LAT CMA_LON CMA_CAT CMA_WIND CMA_PRES HKO_LAT HKO_LON HKO_CAT HKO_WIND HKO_PRES NEWDELHI_LAT NEWDELHI_LON NEWDELHI_GRADE NEWDELHI_WIND NEWDELHI_PRES NEWDELHI_CI NEWDELHI_DP NEWDELHI_POCI REUNION_LAT REUNION_LON REUNION_TYPE REUNION_WIND REUNION_PRES REUNION_TNUM REUNION_CI REUNION_RMW REUNION_R34_NE REUNION_R34_SE REUNION_R34_SW REUNION_R34_NW REUNION_R50_NE REUNION_R50_SE REUNION_R50_SW REUNION_R50_NW REUNION_R64_NE REUNION_R64_SE REUNION_R64_SW REUNION_R64_NW BOM_LAT BOM_LON BOM_TYPE BOM_WIND BOM_PRES BOM_TNUM BOM_CI BOM_RMW BOM_R34_NE BOM_R34_SE BOM_R34_SW BOM_R34_NW BOM_R50_NE BOM_R50_SE BOM_R50_SW BOM_R50_NW BOM_R64_NE BOM_R64_SE BOM_R64_SW BOM_R64_NW BOM_ROCI BOM_POCI BOM_EYE BOM_POS_METHOD BOM_PRES_METHOD NADI_LAT NADI_LON NADI_CAT NADI_WIND NADI_PRES WELLINGTON_LAT WELLINGTON_LON WELLINGTON_WIND WELLINGTON_PRES DS824_LAT DS824_LON DS824_STAGE DS824_WIND DS824_PRES TD9636_LAT TD9636_LON TD9636_STAGE TD9636_WIND TD9636_PRES TD9635_LAT TD9635_LON TD9635_WIND TD9635_PRES TD9635_ROCI NEUMANN_LAT NEUMANN_LON NEUMANN_CLASS NEUMANN_WIND NEUMANN_PRES MLC_LAT MLC_LON MLC_CLASS MLC_WIND MLC_PRES USA_GUST BOM_GUST BOM_GUST_PER REUNION_GUST REUNION_GUST_PER USA_SEAHGT USA_SEARAD_NE USA_SEARAD_SE USA_SEARAD_SW USA_SEARAD_NW STORM_SPEED STORM_DIR
1942196N13147 1942 27 WP MM NOT_NAMED 1942-07-15 09:00:00 NR 12.9000 146.600 main 1680 1680 __________O___ -1 12.9000 146.600 4 18 32
1942196N13147 1942 27 WP MM NOT_NAMED 1942-07-15 12:00:00 NR 13.6744 147.104 main 1770 1770 __________P___ -1 13.6744 147.104 4 18 31
1942196N13147 1942 27 WP MM NOT_NAMED 1942-07-15 15:00:00 NR 14.3985 147.538 main 1848 1848 __________P___ -1 14.3985 147.538 4 15 27
1942196N13147 1942 27 WP MM NOT_NAMED 1942-07-15 18:00:00 NR 15.0233 147.829 main 1916 1916 __________P___ -1 15.0233 147.829 4 12 18
1942196N13147 1942 27 WP MM NOT_NAMED 1942-07-15 21:00:00 NR 15.5000 147.900 main 1972 1972 __________O___ -1 15.5000 147.900 4 8 351
1942196N13147 1942 27 WP MM NOT_NAMED 1942-07-16 00:00:00 NR 15.7994 147.704 main 2005 2005 __________P___ -1 15.7994 147.704 4 7 309
1942196N13147 1942 27 WP MM NOT_NAMED 1942-07-16 03:00:00 NR 15.9702 147.298 main 2027 2027 __________P___ -1 15.9702 147.298 4 9 287
1942196N13147 1942 27 WP MM NOT_NAMED 1942-07-16 06:00:00 NR 16.0809 146.769 main 2038 2038 __________P___ -1 16.0809 146.769 4 11 282
1942196N13147 1942 27 WP MM NOT_NAMED 1942-07-16 09:00:00 NR 16.2000 146.200 main 2050 2050 __________O___ -1 16.2000 146.200 4 11 289
1942196N13147 1942 27 WP MM NOT_NAMED 1942-07-16 12:00:00 NR 16.4286 145.701 main 2074 2074 __________P___ -1 16.4286 145.701 4 11 296
1942196N13147 1942 27 WP MM NOT_NAMED 1942-07-16 15:00:00 NR 16.6778 145.185 main 2089 2046 __________P___ -1 16.6778 145.185 4 11 297
1942196N13147 1942 27 WP MM NOT_NAMED 1942-07-16 18:00:00 NR 16.9380 144.676 main 2046 1994 __________P___ -1 16.9380 144.676 4 11 299
1942196N13147 1942 27 WP MM NOT_NAMED 1942-07-16 21:00:00 NR 17.2000 144.200 main 1994 1957 __________O___ -1 17.2000 144.200 4 10 302
1942196N13147 1942 27 WP MM NOT_NAMED 1942-07-17 00:00:00 NR 17.4574 143.797 main 1947 1910 __________P___ -1 17.4574 143.797 4 9 305
1942196N13147 1942 27 WP MM NOT_NAMED 1942-07-17 03:00:00 NR 17.7141 143.427 main 1910 1867 __________P___ -1 17.7141 143.427 4 9 306
1942196N13147 1942 27 WP MM NOT_NAMED 1942-07-17 06:00:00 NR 17.9637 143.069 main 1867 1831 __________P___ -1 17.9637 143.069 4 8 305
1942196N13147 1942 27 WP MM NOT_NAMED 1942-07-17 09:00:00 NR 18.2000 142.700 main 1831 1799 __________O___ -1 18.2000 142.700 4 8 304
1942196N13147 1942 27 WP MM NOT_NAMED 1942-07-17 12:00:00 NR 18.4297 142.330 main 1795 1764 __________P___ -1 18.4297 142.330 4 8 302
1942196N13147 1942 27 WP MM NOT_NAMED 1942-07-17 15:00:00 NR 18.6436 141.940 main 1760 1726 __________P___ -1 18.6436 141.940 4 9 297
1942196N13147 1942 27 WP MM NOT_NAMED 1942-07-17 18:00:00 NR 18.8357 141.505 main 1726 1686 __________P___ -1 18.8357 141.505 4 10 292
1942196N13147 1942 27 WP MM NOT_NAMED 1942-07-17 21:00:00 NR 19.0000 141.000 main 1686 1648 __________O___ -1 19.0000 141.000 4 11 285
1942196N13147 1942 27 WP MM NOT_NAMED 1942-07-18 00:00:00 NR 19.1164 140.416 main 1643 1601 __________P___ -1 19.1164 140.416 4 12 280
1942196N13147 1942 27 WP MM NOT_NAMED 1942-07-18 03:00:00 NR 19.2071 139.761 main 1601 1555 __________P___ -1 19.2071 139.761 4 13 278
1942196N13147 1942 27 WP MM NOT_NAMED 1942-07-18 06:00:00 NR 19.2942 139.050 main 1555 1503 __________P___ -1 19.2942 139.050 4 14 278
1942196N13147 1942 27 WP MM NOT_NAMED 1942-07-18 09:00:00 NR 19.4000 138.300 main 1503 1454 __________O___ -1 19.4000 138.300 4 15 280
1942196N13147 1942 27 WP MM NOT_NAMED 1942-07-18 12:00:00 NR 19.5459 137.504 main 1454 1398 __________P___ -1 19.5459 137.504 4 16 282
1942196N13147 1942 27 WP MM NOT_NAMED 1942-07-18 15:00:00 NR 19.7135 136.678 main 1398 1344 __________P___ -1 19.7135 136.678 4 16 283
1942196N13147 1942 27 WP MM NOT_NAMED 1942-07-18 18:00:00 NR 19.8991 135.863 main 1344 1294 __________P___ -1 19.8991 135.863 4 15 285
1942196N13147 1942 27 WP MM NOT_NAMED 1942-07-18 21:00:00 NR 20.1000 135.100 main 1294 1254 __________O___ -1 20.1000 135.100 4 14 286
1942196N13147 1942 27 WP MM NOT_NAMED 1942-07-19 00:00:00 NR 20.2838 134.469 main 1254 1215 __________P___ -1 20.2838 134.469 4 12 289
1942196N13147 1942 27 WP MM NOT_NAMED 1942-07-19 03:00:00 NR 20.4867 133.890 main 1215 1179 __________P___ -1 20.4867 133.890 4 12 292
1942196N13147 1942 27 WP MM NOT_NAMED 1942-07-19 06:00:00 NR 20.7213 133.316 main 1179 1126 __________P___ -1 20.7213 133.316 4 12 295
1942196N13147 1942 27 WP MM NOT_NAMED 1942-07-19 09:00:00 NR 21.0000 132.700 main 1126 1054 __________O___ -1 21.0000 132.700 4 15 296
1942196N13147 1942 27 WP MM NOT_NAMED 1942-07-19 12:00:00 NR 21.3705 131.897 main 1057 987 __________P___ -1 21.3705 131.897 4 17 297
1942196N13147 1942 27 WP MM NOT_NAMED 1942-07-19 15:00:00 NR 21.7757 131.057 main 987 898 __________P___ -1 21.7757 131.057 4 17 298
1942196N13147 1942 27 WP MM NOT_NAMED 1942-07-19 18:00:00 NR 22.1676 130.263 main 894 815 __________P___ -1 22.1676 130.263 4 15 298
1942196N13147 1942 27 WP MM NOT_NAMED 1942-07-19 21:00:00 NR 22.5000 129.600 main 815 770 __________O___ -1 22.5000 129.600 4 11 298
1942196N13147 1942 27 WP MM NOT_NAMED 1942-07-20 00:00:00 NR 22.7001 129.179 main 770 737 __________P___ -1 22.7001 129.179 4 7 298
1942196N13147 1942 27 WP MM NOT_NAMED 1942-07-20 03:00:00 NR 22.8422 128.897 main 737 711 __________P___ -1 22.8422 128.897 4 5 300
1942196N13147 1942 27 WP MM NOT_NAMED 1942-07-20 06:00:00 NR 22.9633 128.692 main 711 689 __________P___ -1 22.9633 128.692 4 4 305
1942196N13147 1942 27 WP MM NOT_NAMED 1942-07-20 09:00:00 NR 23.1000 128.500 main 689 663 __________O___ -1 23.1000 128.500 4 5 307
1942196N13147 1942 27 WP MM NOT_NAMED 1942-07-20 12:00:00 NR 23.2787 128.245 main 653 629 __________P___ -1 23.2787 128.245 4 6 309
1942196N13147 1942 27 WP MM NOT_NAMED 1942-07-20 15:00:00 NR 23.4819 127.986 main 629 595 __________P___ -1 23.4819 127.986 4 7 312
1942196N13147 1942 27 WP MM NOT_NAMED 1942-07-20 18:00:00 NR 23.7192 127.710 main 595 557 __________P___ -1 23.7192 127.710 4 7 314
1942196N13147 1942 27 WP MM NOT_NAMED 1942-07-20 21:00:00 NR 24.0000 127.400 main 557 520 __________O___ -1 24.0000 127.400 4 9 315
1942196N13147 1942 27 WP MM NOT_NAMED 1942-07-21 00:00:00 NR 24.3319 127.040 main 510 475 __________P___ -1 24.3319 127.040 4 10 316
1942196N13147 1942 27 WP MM NOT_NAMED 1942-07-21 03:00:00 NR 24.7050 126.645 main 465 432 __________P___ -1 24.7050 126.645 4 11 316
1942196N13147 1942 27 WP MM NOT_NAMED 1942-07-21 06:00:00 NR 25.1006 126.227 main 422 385 __________P___ -1 25.1006 126.227 4 11 316
1942196N13147 1942 27 WP MM NOT_NAMED 1942-07-21 09:00:00 NR 25.5000 125.800 main 385 352 __________O___ -1 25.5000 125.800 4 11 315
1942196N13147 1942 27 WP MM NOT_NAMED 1942-07-21 12:00:00 NR 25.8751 125.362 main 355 320 __________P___ -1 25.8751 125.362 4 11 313
1942196N13147 1942 27 WP MM NOT_NAMED 1942-07-21 15:00:00 NR 26.2502 124.920 main 324 307 __________P___ -1 26.2502 124.920 4 11 314
1942196N13147 1942 27 WP MM NOT_NAMED 1942-07-21 18:00:00 NR 26.6252 124.493 main 307 285 __________P___ -1 26.6252 124.493 4 11 316
1942196N13147 1942 27 WP MM NOT_NAMED 1942-07-21 21:00:00 NR 27.0000 124.100 main 285 238 __________O___ -1 27.0000 124.100 4 10 320
1942196N13147 1942 27 WP MM NOT_NAMED 1942-07-22 00:00:00 NR 27.3741 123.779 main 238 198 __________P___ -1 27.3741 123.779 4 9 324
1942196N13147 1942 27 WP MM NOT_NAMED 1942-07-22 03:00:00 NR 27.7488 123.490 main 198 158 __________P___ -1 27.7488 123.490 4 9 326
1942196N13147 1942 27 WP MM NOT_NAMED 1942-07-22 06:00:00 NR 28.1241 123.207 main 158 117 __________P___ -1 28.1241 123.207 4 9 325
1942196N13147 1942 27 WP MM NOT_NAMED 1942-07-22 09:00:00 NR 28.5000 122.900 main 117 58 __________O___ -1 28.5000 122.900 4 10 321
1942196N13147 1942 27 WP MM NOT_NAMED 1942-07-22 12:00:00 NR 28.8834 122.517 main 58 9 __________P___ -1 28.8834 122.517 4 10 318
1942196N13147 1942 27 WP MM NOT_NAMED 1942-07-22 15:00:00 NR 29.2654 122.108 main 14 0 __________P___ -1 29.2654 122.108 4 10 317
1942196N13147 1942 27 WP MM NOT_NAMED 1942-07-22 18:00:00 NR 29.6396 121.695 main 0 0 __________P___ -1 29.6396 121.695 4 10 316
1942196N13147 1942 27 WP MM NOT_NAMED 1942-07-22 21:00:00 NR 30.0000 121.300 main 0 0 __________O___ -1 30.0000 121.300 4 9 318
1942196N13147 1942 27 WP MM NOT_NAMED 1942-07-23 00:00:00 NR 30.3345 120.964 main 14 0 __________P___ -1 30.3345 120.964 4 9 319
1942196N13147 1942 27 WP MM NOT_NAMED 1942-07-23 03:00:00 NR 30.6564 120.648 main 0 0 __________P___ -1 30.6564 120.648 4 8 320
1942196N13147 1942 27 WP MM NOT_NAMED 1942-07-23 06:00:00 NR 30.9752 120.333 main 0 0 __________P___ -1 30.9752 120.333 4 9 319
1942196N13147 1942 27 WP MM NOT_NAMED 1942-07-23 09:00:00 NR 31.3000 120.000 main 0 0 __________O___ -1 31.3000 120.000 7 9 314
1942196N13147 1942 27 WP MM NOT_NAMED 1942-07-23 12:00:00 NR 31.6235 119.550 main 0 0 __________P___ -1 31.6235 119.550 7 10 310
1942196N13147 1942 27 WP MM NOT_NAMED 1942-07-23 15:00:00 NR 31.9564 119.090 main 0 0 __________P___ -1 31.9564 119.090 7 10 313
1942196N13147 1942 27 WP MM NOT_NAMED 1942-07-23 18:00:00 NR 32.3110 118.685 main 0 0 __________P___ -1 32.3110 118.685 7 9 322
1942196N13147 1942 27 WP MM NOT_NAMED 1942-07-23 21:00:00 NR 32.7000 118.400 main 0 0 __________O___ -1 32.7000 118.400 7 9 338
1942196N13147 1942 27 WP MM NOT_NAMED 1942-07-24 00:00:00 NR 33.1501 118.275 main 0 0 __________P___ -1 33.1501 118.275 7 9 354
1942196N13147 1942 27 WP MM NOT_NAMED 1942-07-24 03:00:00 NR 33.6336 118.282 main 0 0 __________P___ -1 33.6336 118.282 7 10 6
1942196N13147 1942 27 WP MM NOT_NAMED 1942-07-24 06:00:00 NR 34.1253 118.397 main 0 0 __________P___ -1 34.1253 118.397 7 10 15
1942196N13147 1942 27 WP MM NOT_NAMED 1942-07-24 09:00:00 NR 34.6000 118.600 main 0 0 __________O___ -1 34.6000 118.600 7 9 20
1942196N13147 1942 27 WP MM NOT_NAMED 1942-07-24 12:00:00 NR 34.9833 118.769 main 0 0 __________P___ -1 34.9833 118.769 7 8 25
1942196N13147 1942 27 WP MM NOT_NAMED 1942-07-24 15:00:00 NR 35.3520 119.025 main 0 0 __________P___ -1 35.3520 119.025 7 9 34
1942196N13147 1942 27 WP MM NOT_NAMED 1942-07-24 18:00:00 NR 35.7448 119.393 main 0 0 __________P___ -1 35.7448 119.393 7 11 40
1942196N13147 1942 27 WP MM NOT_NAMED 1942-07-24 21:00:00 NR 36.2000 119.900 main 0 0 __________O___ -1 36.2000 119.900 7 14 42
1942196N13147 1942 27 WP MM NOT_NAMED 1942-07-25 00:00:00 NR 36.8066 120.567 main 0 0 __________P___ -1 36.8066 120.567 7 17 43
1942196N13147 1942 27 WP MM NOT_NAMED 1942-07-25 03:00:00 NR 37.4672 121.376 main 0 0 __________P___ -1 37.4672 121.376 7 19 46
1942196N13147 1942 27 WP MM NOT_NAMED 1942-07-25 06:00:00 NR 38.1187 122.273 main 69 69 __________P___ -1 38.1187 122.273 7 19 49
1942196N13147 1942 27 WP MM NOT_NAMED 1942-07-25 09:00:00 NR 38.7000 123.200 main 98 82 __________O___ -1 38.7000 123.200 7 16 54
1942196N13147 1942 27 WP MM NOT_NAMED 1942-07-25 12:00:00 NR 39.0611 123.932 main 78 33 __________P___ -1 39.0611 123.932 7 13 60
1942196N13147 1942 27 WP MM NOT_NAMED 1942-07-25 15:00:00 NR 39.3594 124.691 main 22 0 __________P___ -1 39.3594 124.691 7 14 64
1942196N13147 1942 27 WP MM NOT_NAMED 1942-07-25 18:00:00 NR 39.6788 125.578 main 0 0 __________P___ -1 39.6788 125.578 7 17 64
1942196N13147 1942 27 WP MM NOT_NAMED 1942-07-25 21:00:00 NR 40.1000 126.700 main 0 0 __________O___ -1 40.1000 126.700 7 23 65
1942196N13147 1942 27 WP MM NOT_NAMED 1942-07-26 00:00:00 NR 40.6686 128.319 main 0 0 __________P___ -1 40.6686 128.319 7 29 65
1942196N13147 1942 27 WP MM NOT_NAMED 1942-07-26 03:00:00 NR 41.3314 130.185 main 41 41 __________P___ -1 41.3314 130.185 7 32 64
1942196N13147 1942 27 WP MM NOT_NAMED 1942-07-26 06:00:00 NR 42.0754 132.110 main 79 0 __________P___ -1 42.0754 132.110 7 32 60
1942196N13147 1942 27 WP MM NOT_NAMED 1942-07-26 09:00:00 NR 42.9000 133.900 main 0 0 __________O___ -1 42.9000 133.900 7 29 53
1942196N13147 1942 27 WP MM NOT_NAMED 1942-07-26 12:00:00 NR 43.8386 135.347 main 0 0 __________P___ -1 43.8386 135.347 7 28 45
1942196N13147 1942 27 WP MM NOT_NAMED 1942-07-26 15:00:00 NR 44.8641 136.625 main 7 0 __________P___ -1 44.8641 136.625 7 27 40
1942196N13147 1942 27 WP MM NOT_NAMED 1942-07-26 18:00:00 NR 45.9081 137.768 main 0 0 __________P___ -1 45.9081 137.768 7 25 37
1942196N13147 1942 27 WP MM NOT_NAMED 1942-07-26 21:00:00 NR 46.9000 138.800 main 18 13 __________O___ -1 46.9000 138.800 7 23 37
1942196N13147 1942 27 WP MM NOT_NAMED 1942-07-27 00:00:00 NR 47.7159 139.792 main 36 18 __________P___ -1 47.7159 139.792 7 20 39
1942196N13147 1942 27 WP MM NOT_NAMED 1942-07-27 03:00:00 NR 48.4779 140.672 main 36 36 __________P___ -1 48.4779 140.672 7 19 37
1942196N13147 1942 27 WP MM NOT_NAMED 1942-07-27 06:00:00 NR 49.2265 141.490 main 43 0 __________P___ -1 49.2265 141.490 7 19 35
1942196N13147 1942 27 WP MM NOT_NAMED 1942-07-27 09:00:00 NR 50.0000 142.300 main 0 0 __________O___ -1 50.0000 142.300 7 19 34
1942196N13147 1942 27 WP MM NOT_NAMED 1942-07-27 12:00:00 NR 50.8265 143.150 main 0 0 __________P___ -1 50.8265 143.150 7 20 33
1942196N13147 1942 27 WP MM NOT_NAMED 1942-07-27 15:00:00 NR 51.6972 144.052 main 52 52 __________P___ -1 51.6972 144.052 7 21 33
1942196N13147 1942 27 WP MM NOT_NAMED 1942-07-27 18:00:00 NR 52.5944 145.002 main 114 114 __________P___ -1 52.5944 145.002 7 22 33
1942196N13147 1942 27 WP MM NOT_NAMED 1942-07-27 21:00:00 NR 53.5000 146.000 main 183 __________O___ -1 53.5000 146.000 7 22 33

Digital Typhoon Data and Search

About IBTrACS Database

This database is a web-friendly format of International Best Track Archive for Climate Stewardship (IBTrACS), a global best track data archive curated by NOAA dating back to 1842.

Updated: 2021-12-06